sensor_id;sensor_type;location;lat;lon;timestamp;P1;durP1;ratioP1;P2;durP2;ratioP2
11034;SDS011;5571;48.110;-1.706;2023-08-06T00:02:13;12.03;;;3.70;;
11034;SDS011;5571;48.110;-1.706;2023-08-06T00:04:38;13.97;;;3.73;;
11034;SDS011;5571;48.110;-1.706;2023-08-06T00:07:04;17.97;;;6.03;;
11034;SDS011;5571;48.110;-1.706;2023-08-06T00:09:29;16.53;;;4.07;;
11034;SDS011;5571;48.110;-1.706;2023-08-06T00:11:55;20.63;;;6.37;;
11034;SDS011;5571;48.110;-1.706;2023-08-06T00:14:21;16.10;;;4.87;;
11034;SDS011;5571;48.110;-1.706;2023-08-06T00:16:46;22.53;;;6.13;;
11034;SDS011;5571;48.110;-1.706;2023-08-06T00:19:12;16.13;;;4.37;;
11034;SDS011;5571;48.110;-1.706;2023-08-06T00:21:38;19.77;;;4.30;;
11034;SDS011;5571;48.110;-1.706;2023-08-06T00:24:03;12.03;;;3.87;;
11034;SDS011;5571;48.110;-1.706;2023-08-06T00:26:29;20.63;;;4.03;;
11034;SDS011;5571;48.110;-1.706;2023-08-06T00:28:55;12.93;;;3.40;;
11034;SDS011;5571;48.110;-1.706;2023-08-06T00:31:20;13.57;;;3.73;;
11034;SDS011;5571;48.110;-1.706;2023-08-06T00:33:46;10.57;;;3.27;;
11034;SDS011;5571;48.110;-1.706;2023-08-06T00:36:11;15.30;;;3.80;;
11034;SDS011;5571;48.110;-1.706;2023-08-06T00:38:37;14.53;;;4.33;;
11034;SDS011;5571;48.110;-1.706;2023-08-06T00:41:03;12.83;;;3.57;;
11034;SDS011;5571;48.110;-1.706;2023-08-06T00:43:28;9.23;;;3.10;;
11034;SDS011;5571;48.110;-1.706;2023-08-06T00:45:54;14.07;;;3.63;;
11034;SDS011;5571;48.110;-1.706;2023-08-06T00:48:20;15.67;;;3.43;;
11034;SDS011;5571;48.110;-1.706;2023-08-06T00:50:46;9.87;;;2.97;;
11034;SDS011;5571;48.110;-1.706;2023-08-06T00:53:12;12.00;;;3.97;;
11034;SDS011;5571;48.110;-1.706;2023-08-06T00:55:38;11.83;;;3.27;;
11034;SDS011;5571;48.110;-1.706;2023-08-06T00:58:04;11.07;;;3.67;;
11034;SDS011;5571;48.110;-1.706;2023-08-06T01:00:30;10.40;;;3.07;;
11034;SDS011;5571;48.110;-1.706;2023-08-06T01:02:56;11.73;;;3.70;;
11034;SDS011;5571;48.110;-1.706;2023-08-06T01:05:22;10.70;;;3.53;;
11034;SDS011;5571;48.110;-1.706;2023-08-06T01:10:54;15.03;;;3.70;;
11034;SDS011;5571;48.110;-1.706;2023-08-06T01:13:42;11.63;;;3.20;;
11034;SDS011;5571;48.110;-1.706;2023-08-06T01:16:14;10.07;;;2.90;;
11034;SDS011;5571;48.110;-1.706;2023-08-06T01:18:40;13.13;;;3.30;;
11034;SDS011;5571;48.110;-1.706;2023-08-06T01:21:08;12.77;;;3.50;;
11034;SDS011;5571;48.110;-1.706;2023-08-06T01:23:34;13.60;;;3.60;;
11034;SDS011;5571;48.110;-1.706;2023-08-06T01:26:05;10.57;;;3.47;;
11034;SDS011;5571;48.110;-1.706;2023-08-06T01:29:28;17.17;;;3.37;;
11034;SDS011;5571;48.110;-1.706;2023-08-06T01:31:45;13.60;;;3.50;;
11034;SDS011;5571;48.110;-1.706;2023-08-06T01:34:14;11.97;;;3.47;;
11034;SDS011;5571;48.110;-1.706;2023-08-06T01:36:45;15.83;;;6.80;;
11034;SDS011;5571;48.110;-1.706;2023-08-06T01:39:11;16.30;;;3.70;;
11034;SDS011;5571;48.110;-1.706;2023-08-06T01:41:37;13.70;;;4.20;;
11034;SDS011;5571;48.110;-1.706;2023-08-06T01:44:02;17.27;;;3.47;;
11034;SDS011;5571;48.110;-1.706;2023-08-06T01:46:28;12.13;;;3.10;;
11034;SDS011;5571;48.110;-1.706;2023-08-06T01:48:53;12.07;;;3.63;;
11034;SDS011;5571;48.110;-1.706;2023-08-06T01:51:19;8.67;;;2.90;;
11034;SDS011;5571;48.110;-1.706;2023-08-06T01:53:45;15.20;;;3.60;;
11034;SDS011;5571;48.110;-1.706;2023-08-06T01:56:10;15.33;;;3.20;;
11034;SDS011;5571;48.110;-1.706;2023-08-06T01:58:36;9.23;;;2.70;;
11034;SDS011;5571;48.110;-1.706;2023-08-06T02:01:02;14.07;;;3.03;;
11034;SDS011;5571;48.110;-1.706;2023-08-06T02:03:27;10.57;;;3.00;;
11034;SDS011;5571;48.110;-1.706;2023-08-06T02:05:53;12.83;;;3.97;;
11034;SDS011;5571;48.110;-1.706;2023-08-06T02:08:19;20.07;;;5.27;;
11034;SDS011;5571;48.110;-1.706;2023-08-06T02:10:45;11.70;;;3.80;;
11034;SDS011;5571;48.110;-1.706;2023-08-06T02:13:10;14.27;;;3.37;;
11034;SDS011;5571;48.110;-1.706;2023-08-06T02:15:41;11.07;;;3.63;;
11034;SDS011;5571;48.110;-1.706;2023-08-06T02:18:08;11.27;;;3.10;;
11034;SDS011;5571;48.110;-1.706;2023-08-06T02:20:34;18.37;;;2.83;;
11034;SDS011;5571;48.110;-1.706;2023-08-06T02:22:59;13.07;;;3.10;;
11034;SDS011;5571;48.110;-1.706;2023-08-06T02:25:25;14.33;;;4.37;;
11034;SDS011;5571;48.110;-1.706;2023-08-06T02:27:50;11.97;;;3.33;;
11034;SDS011;5571;48.110;-1.706;2023-08-06T02:30:16;12.13;;;2.97;;
11034;SDS011;5571;48.110;-1.706;2023-08-06T02:32:41;17.00;;;3.00;;
11034;SDS011;5571;48.110;-1.706;2023-08-06T02:35:07;16.73;;;2.97;;
11034;SDS011;5571;48.110;-1.706;2023-08-06T02:37:33;14.60;;;3.00;;
11034;SDS011;5571;48.110;-1.706;2023-08-06T02:39:59;13.70;;;2.50;;
11034;SDS011;5571;48.110;-1.706;2023-08-06T02:42:25;10.63;;;2.50;;
11034;SDS011;5571;48.110;-1.706;2023-08-06T02:44:51;10.17;;;2.80;;
11034;SDS011;5571;48.110;-1.706;2023-08-06T02:47:20;8.30;;;2.50;;
11034;SDS011;5571;48.110;-1.706;2023-08-06T02:49:45;12.30;;;2.80;;
11034;SDS011;5571;48.110;-1.706;2023-08-06T02:52:11;17.27;;;3.60;;
11034;SDS011;5571;48.110;-1.706;2023-08-06T02:54:37;13.30;;;2.97;;
11034;SDS011;5571;48.110;-1.706;2023-08-06T02:57:02;13.50;;;2.70;;
11034;SDS011;5571;48.110;-1.706;2023-08-06T02:59:28;12.97;;;2.63;;
11034;SDS011;5571;48.110;-1.706;2023-08-06T03:01:54;10.90;;;3.00;;
11034;SDS011;5571;48.110;-1.706;2023-08-06T03:04:19;15.63;;;2.73;;
11034;SDS011;5571;48.110;-1.706;2023-08-06T03:06:45;9.27;;;3.10;;
11034;SDS011;5571;48.110;-1.706;2023-08-06T03:09:10;11.63;;;2.60;;
11034;SDS011;5571;48.110;-1.706;2023-08-06T03:11:36;13.67;;;3.13;;
11034;SDS011;5571;48.110;-1.706;2023-08-06T03:14:02;10.30;;;3.10;;
11034;SDS011;5571;48.110;-1.706;2023-08-06T03:16:27;13.87;;;3.03;;
11034;SDS011;5571;48.110;-1.706;2023-08-06T03:18:53;11.63;;;3.30;;
11034;SDS011;5571;48.110;-1.706;2023-08-06T03:21:19;8.37;;;2.70;;
11034;SDS011;5571;48.110;-1.706;2023-08-06T03:23:46;11.87;;;2.80;;
11034;SDS011;5571;48.110;-1.706;2023-08-06T03:26:13;16.67;;;3.10;;
11034;SDS011;5571;48.110;-1.706;2023-08-06T03:28:39;9.73;;;2.63;;
11034;SDS011;5571;48.110;-1.706;2023-08-06T03:31:04;11.90;;;2.97;;
11034;SDS011;5571;48.110;-1.706;2023-08-06T03:33:30;11.13;;;2.60;;
11034;SDS011;5571;48.110;-1.706;2023-08-06T03:35:56;11.80;;;2.97;;
11034;SDS011;5571;48.110;-1.706;2023-08-06T03:38:22;13.67;;;2.77;;
11034;SDS011;5571;48.110;-1.706;2023-08-06T03:40:48;8.10;;;2.70;;
11034;SDS011;5571;48.110;-1.706;2023-08-06T03:43:14;11.17;;;3.10;;
11034;SDS011;5571;48.110;-1.706;2023-08-06T03:45:40;7.70;;;2.83;;
11034;SDS011;5571;48.110;-1.706;2023-08-06T03:48:06;12.57;;;2.60;;
11034;SDS011;5571;48.110;-1.706;2023-08-06T03:50:32;13.10;;;2.80;;
11034;SDS011;5571;48.110;-1.706;2023-08-06T03:52:58;52.13;;;27.00;;
11034;SDS011;5571;48.110;-1.706;2023-08-06T03:55:23;12.17;;;4.07;;
11034;SDS011;5571;48.110;-1.706;2023-08-06T03:57:49;11.77;;;2.73;;
11034;SDS011;5571;48.110;-1.706;2023-08-06T04:00:15;11.60;;;2.97;;
11034;SDS011;5571;48.110;-1.706;2023-08-06T04:02:40;11.27;;;2.37;;
11034;SDS011;5571;48.110;-1.706;2023-08-06T04:05:06;12.43;;;2.63;;
11034;SDS011;5571;48.110;-1.706;2023-08-06T04:07:32;8.73;;;2.70;;
11034;SDS011;5571;48.110;-1.706;2023-08-06T04:09:59;13.13;;;3.40;;
11034;SDS011;5571;48.110;-1.706;2023-08-06T04:12:26;12.67;;;2.67;;
11034;SDS011;5571;48.110;-1.706;2023-08-06T04:14:52;11.00;;;4.17;;
11034;SDS011;5571;48.110;-1.706;2023-08-06T04:17:19;9.60;;;2.50;;
11034;SDS011;5571;48.110;-1.706;2023-08-06T04:19:46;18.33;;;3.10;;
11034;SDS011;5571;48.110;-1.706;2023-08-06T04:22:15;8.10;;;2.50;;
11034;SDS011;5571;48.110;-1.706;2023-08-06T04:24:41;13.57;;;3.03;;
11034;SDS011;5571;48.110;-1.706;2023-08-06T04:27:08;11.03;;;2.67;;
11034;SDS011;5571;48.110;-1.706;2023-08-06T04:29:34;9.90;;;2.80;;
11034;SDS011;5571;48.110;-1.706;2023-08-06T04:32:00;9.77;;;2.77;;
11034;SDS011;5571;48.110;-1.706;2023-08-06T04:34:26;8.97;;;2.80;;
11034;SDS011;5571;48.110;-1.706;2023-08-06T04:36:51;15.67;;;3.03;;
11034;SDS011;5571;48.110;-1.706;2023-08-06T04:39:17;12.37;;;2.83;;
11034;SDS011;5571;48.110;-1.706;2023-08-06T04:41:42;9.93;;;2.73;;
11034;SDS011;5571;48.110;-1.706;2023-08-06T04:44:08;11.80;;;2.50;;
11034;SDS011;5571;48.110;-1.706;2023-08-06T04:46:34;10.73;;;2.90;;
11034;SDS011;5571;48.110;-1.706;2023-08-06T04:48:59;8.07;;;2.47;;
11034;SDS011;5571;48.110;-1.706;2023-08-06T04:51:25;14.83;;;3.03;;
11034;SDS011;5571;48.110;-1.706;2023-08-06T04:53:50;9.83;;;2.77;;
11034;SDS011;5571;48.110;-1.706;2023-08-06T04:56:16;12.27;;;2.37;;
11034;SDS011;5571;48.110;-1.706;2023-08-06T04:58:43;12.57;;;2.67;;
11034;SDS011;5571;48.110;-1.706;2023-08-06T05:01:08;15.57;;;2.97;;
11034;SDS011;5571;48.110;-1.706;2023-08-06T05:03:34;13.83;;;3.30;;
11034;SDS011;5571;48.110;-1.706;2023-08-06T05:05:59;11.37;;;3.30;;
11034;SDS011;5571;48.110;-1.706;2023-08-06T05:08:25;14.67;;;3.17;;
11034;SDS011;5571;48.110;-1.706;2023-08-06T05:10:51;16.37;;;3.00;;
11034;SDS011;5571;48.110;-1.706;2023-08-06T05:13:16;16.47;;;2.80;;
11034;SDS011;5571;48.110;-1.706;2023-08-06T05:15:42;13.87;;;3.20;;
11034;SDS011;5571;48.110;-1.706;2023-08-06T05:18:08;14.10;;;2.80;;
11034;SDS011;5571;48.110;-1.706;2023-08-06T05:20:40;9.73;;;2.90;;
11034;SDS011;5571;48.110;-1.706;2023-08-06T05:23:07;12.50;;;2.77;;
11034;SDS011;5571;48.110;-1.706;2023-08-06T05:25:36;11.03;;;2.50;;
11034;SDS011;5571;48.110;-1.706;2023-08-06T05:28:02;15.27;;;3.20;;
11034;SDS011;5571;48.110;-1.706;2023-08-06T05:30:28;15.80;;;2.70;;
11034;SDS011;5571;48.110;-1.706;2023-08-06T05:32:54;17.63;;;3.27;;
11034;SDS011;5571;48.110;-1.706;2023-08-06T05:35:20;15.00;;;2.83;;
11034;SDS011;5571;48.110;-1.706;2023-08-06T05:37:46;13.50;;;3.30;;
11034;SDS011;5571;48.110;-1.706;2023-08-06T05:40:12;12.63;;;2.80;;
11034;SDS011;5571;48.110;-1.706;2023-08-06T05:42:38;17.00;;;3.30;;
11034;SDS011;5571;48.110;-1.706;2023-08-06T05:45:04;17.50;;;2.87;;
11034;SDS011;5571;48.110;-1.706;2023-08-06T05:47:30;12.50;;;3.47;;
11034;SDS011;5571;48.110;-1.706;2023-08-06T05:49:56;14.80;;;3.40;;
11034;SDS011;5571;48.110;-1.706;2023-08-06T05:52:21;13.33;;;3.07;;
11034;SDS011;5571;48.110;-1.706;2023-08-06T05:54:47;19.07;;;3.30;;
11034;SDS011;5571;48.110;-1.706;2023-08-06T05:57:12;13.37;;;2.80;;
11034;SDS011;5571;48.110;-1.706;2023-08-06T05:59:40;13.00;;;3.00;;
11034;SDS011;5571;48.110;-1.706;2023-08-06T06:02:05;14.57;;;3.63;;
11034;SDS011;5571;48.110;-1.706;2023-08-06T06:04:31;15.50;;;3.33;;
11034;SDS011;5571;48.110;-1.706;2023-08-06T06:06:57;17.53;;;3.03;;
11034;SDS011;5571;48.110;-1.706;2023-08-06T06:09:22;14.10;;;3.00;;
11034;SDS011;5571;48.110;-1.706;2023-08-06T06:11:48;10.63;;;2.90;;
11034;SDS011;5571;48.110;-1.706;2023-08-06T06:14:15;14.23;;;2.77;;
11034;SDS011;5571;48.110;-1.706;2023-08-06T06:16:44;14.40;;;3.43;;
11034;SDS011;5571;48.110;-1.706;2023-08-06T06:19:10;18.70;;;3.40;;
11034;SDS011;5571;48.110;-1.706;2023-08-06T06:21:36;17.00;;;3.40;;
11034;SDS011;5571;48.110;-1.706;2023-08-06T06:24:03;16.17;;;3.07;;
11034;SDS011;5571;48.110;-1.706;2023-08-06T06:26:29;14.23;;;3.20;;
11034;SDS011;5571;48.110;-1.706;2023-08-06T06:28:55;16.43;;;3.50;;
11034;SDS011;5571;48.110;-1.706;2023-08-06T06:31:21;14.03;;;3.13;;
11034;SDS011;5571;48.110;-1.706;2023-08-06T06:33:46;20.40;;;3.80;;
11034;SDS011;5571;48.110;-1.706;2023-08-06T06:36:12;18.37;;;3.77;;
11034;SDS011;5571;48.110;-1.706;2023-08-06T06:38:38;18.30;;;3.73;;
11034;SDS011;5571;48.110;-1.706;2023-08-06T06:41:03;12.43;;;3.30;;
11034;SDS011;5571;48.110;-1.706;2023-08-06T06:43:29;21.97;;;3.47;;
11034;SDS011;5571;48.110;-1.706;2023-08-06T06:45:58;17.13;;;3.73;;
11034;SDS011;5571;48.110;-1.706;2023-08-06T06:48:25;16.70;;;3.23;;
11034;SDS011;5571;48.110;-1.706;2023-08-06T06:50:52;15.23;;;3.33;;
11034;SDS011;5571;48.110;-1.706;2023-08-06T06:53:17;14.70;;;3.53;;
11034;SDS011;5571;48.110;-1.706;2023-08-06T06:55:43;16.80;;;3.50;;
11034;SDS011;5571;48.110;-1.706;2023-08-06T06:58:09;16.50;;;3.77;;
11034;SDS011;5571;48.110;-1.706;2023-08-06T07:00:38;14.47;;;3.23;;
11034;SDS011;5571;48.110;-1.706;2023-08-06T07:03:03;22.00;;;3.43;;
11034;SDS011;5571;48.110;-1.706;2023-08-06T07:05:29;20.43;;;3.80;;
11034;SDS011;5571;48.110;-1.706;2023-08-06T07:07:55;18.13;;;3.73;;
11034;SDS011;5571;48.110;-1.706;2023-08-06T07:10:20;15.07;;;3.27;;
11034;SDS011;5571;48.110;-1.706;2023-08-06T07:12:46;13.90;;;3.67;;
11034;SDS011;5571;48.110;-1.706;2023-08-06T07:15:11;21.47;;;4.17;;
11034;SDS011;5571;48.110;-1.706;2023-08-06T07:17:37;17.97;;;3.20;;
11034;SDS011;5571;48.110;-1.706;2023-08-06T07:20:03;13.57;;;2.87;;
11034;SDS011;5571;48.110;-1.706;2023-08-06T07:22:29;11.83;;;3.13;;
11034;SDS011;5571;48.110;-1.706;2023-08-06T07:24:55;14.40;;;3.13;;
11034;SDS011;5571;48.110;-1.706;2023-08-06T07:27:20;15.93;;;3.53;;
11034;SDS011;5571;48.110;-1.706;2023-08-06T07:29:46;14.53;;;3.10;;
11034;SDS011;5571;48.110;-1.706;2023-08-06T07:32:13;25.33;;;3.70;;
11034;SDS011;5571;48.110;-1.706;2023-08-06T07:34:38;15.00;;;3.57;;
11034;SDS011;5571;48.110;-1.706;2023-08-06T07:37:04;18.63;;;3.37;;
11034;SDS011;5571;48.110;-1.706;2023-08-06T07:39:30;14.40;;;3.07;;
11034;SDS011;5571;48.110;-1.706;2023-08-06T07:41:56;14.17;;;3.97;;
11034;SDS011;5571;48.110;-1.706;2023-08-06T07:44:22;15.10;;;3.60;;
11034;SDS011;5571;48.110;-1.706;2023-08-06T07:46:48;12.73;;;3.17;;
11034;SDS011;5571;48.110;-1.706;2023-08-06T07:49:14;14.70;;;3.67;;
11034;SDS011;5571;48.110;-1.706;2023-08-06T07:51:40;15.60;;;3.03;;
11034;SDS011;5571;48.110;-1.706;2023-08-06T07:54:06;12.57;;;3.00;;
11034;SDS011;5571;48.110;-1.706;2023-08-06T07:56:32;15.00;;;2.83;;
11034;SDS011;5571;48.110;-1.706;2023-08-06T07:58:58;12.40;;;3.57;;
11034;SDS011;5571;48.110;-1.706;2023-08-06T08:01:23;11.53;;;2.93;;
11034;SDS011;5571;48.110;-1.706;2023-08-06T08:03:49;10.87;;;2.57;;
11034;SDS011;5571;48.110;-1.706;2023-08-06T08:06:14;11.57;;;2.90;;
11034;SDS011;5571;48.110;-1.706;2023-08-06T08:08:40;16.27;;;3.50;;
11034;SDS011;5571;48.110;-1.706;2023-08-06T08:11:06;12.13;;;3.43;;
11034;SDS011;5571;48.110;-1.706;2023-08-06T08:13:31;16.33;;;3.30;;
11034;SDS011;5571;48.110;-1.706;2023-08-06T08:15:58;12.85;;;2.92;;
11034;SDS011;5571;48.110;-1.706;2023-08-06T08:18:24;11.53;;;2.97;;
11034;SDS011;5571;48.110;-1.706;2023-08-06T08:20:50;14.73;;;2.77;;
11034;SDS011;5571;48.110;-1.706;2023-08-06T08:23:15;13.90;;;2.60;;
11034;SDS011;5571;48.110;-1.706;2023-08-06T08:25:41;13.13;;;3.03;;
11034;SDS011;5571;48.110;-1.706;2023-08-06T08:28:07;10.65;;;2.83;;
11034;SDS011;5571;48.110;-1.706;2023-08-06T08:30:32;15.45;;;2.92;;
11034;SDS011;5571;48.110;-1.706;2023-08-06T08:32:58;10.65;;;2.55;;
11034;SDS011;5571;48.110;-1.706;2023-08-06T08:35:24;8.10;;;2.58;;
11034;SDS011;5571;48.110;-1.706;2023-08-06T08:37:49;12.27;;;2.55;;
11034;SDS011;5571;48.110;-1.706;2023-08-06T08:40:15;11.15;;;2.97;;
11034;SDS011;5571;48.110;-1.706;2023-08-06T08:42:41;8.77;;;2.85;;
11034;SDS011;5571;48.110;-1.706;2023-08-06T08:45:14;9.90;;;2.83;;
11034;SDS011;5571;48.110;-1.706;2023-08-06T08:47:40;8.80;;;2.28;;
11034;SDS011;5571;48.110;-1.706;2023-08-06T08:50:08;10.82;;;2.20;;
11034;SDS011;5571;48.110;-1.706;2023-08-06T08:52:35;10.40;;;2.35;;
11034;SDS011;5571;48.110;-1.706;2023-08-06T08:55:03;7.22;;;2.65;;
11034;SDS011;5571;48.110;-1.706;2023-08-06T08:57:29;8.38;;;2.58;;
11034;SDS011;5571;48.110;-1.706;2023-08-06T08:59:54;12.50;;;2.60;;
11034;SDS011;5571;48.110;-1.706;2023-08-06T09:02:20;5.22;;;1.92;;
11034;SDS011;5571;48.110;-1.706;2023-08-06T09:04:48;11.57;;;2.42;;
11034;SDS011;5571;48.110;-1.706;2023-08-06T09:07:16;7.72;;;2.10;;
11034;SDS011;5571;48.110;-1.706;2023-08-06T09:09:44;7.05;;;2.25;;
11034;SDS011;5571;48.110;-1.706;2023-08-06T09:12:14;7.65;;;2.30;;
11034;SDS011;5571;48.110;-1.706;2023-08-06T09:14:40;7.22;;;2.00;;
11034;SDS011;5571;48.110;-1.706;2023-08-06T09:17:07;9.45;;;2.30;;
11034;SDS011;5571;48.110;-1.706;2023-08-06T09:19:34;8.65;;;2.00;;
11034;SDS011;5571;48.110;-1.706;2023-08-06T09:21:59;7.32;;;2.22;;
11034;SDS011;5571;48.110;-1.706;2023-08-06T09:24:25;10.45;;;2.60;;
11034;SDS011;5571;48.110;-1.706;2023-08-06T09:26:53;10.00;;;2.50;;
11034;SDS011;5571;48.110;-1.706;2023-08-06T09:29:19;10.38;;;2.22;;
11034;SDS011;5571;48.110;-1.706;2023-08-06T09:31:49;8.57;;;1.88;;
11034;SDS011;5571;48.110;-1.706;2023-08-06T09:34:20;5.40;;;1.98;;
11034;SDS011;5571;48.110;-1.706;2023-08-06T09:36:53;8.70;;;1.92;;
11034;SDS011;5571;48.110;-1.706;2023-08-06T09:39:22;6.47;;;2.10;;
11034;SDS011;5571;48.110;-1.706;2023-08-06T09:41:55;8.10;;;1.55;;
11034;SDS011;5571;48.110;-1.706;2023-08-06T09:44:21;6.05;;;1.98;;
11034;SDS011;5571;48.110;-1.706;2023-08-06T09:46:57;8.45;;;4.35;;
11034;SDS011;5571;48.110;-1.706;2023-08-06T09:49:27;7.88;;;2.60;;
11034;SDS011;5571;48.110;-1.706;2023-08-06T09:52:06;10.80;;;2.80;;
11034;SDS011;5571;48.110;-1.706;2023-08-06T09:54:36;6.10;;;2.30;;
11034;SDS011;5571;48.110;-1.706;2023-08-06T09:57:03;6.75;;;2.13;;
11034;SDS011;5571;48.110;-1.706;2023-08-06T09:59:30;7.03;;;2.08;;
11034;SDS011;5571;48.110;-1.706;2023-08-06T10:01:57;4.18;;;1.67;;
11034;SDS011;5571;48.110;-1.706;2023-08-06T10:04:23;4.18;;;1.42;;
11034;SDS011;5571;48.110;-1.706;2023-08-06T10:06:50;9.38;;;1.70;;
11034;SDS011;5571;48.110;-1.706;2023-08-06T10:09:16;4.65;;;1.45;;
11034;SDS011;5571;48.110;-1.706;2023-08-06T10:11:44;7.70;;;1.83;;
11034;SDS011;5571;48.110;-1.706;2023-08-06T10:14:27;8.57;;;2.00;;
11034;SDS011;5571;48.110;-1.706;2023-08-06T10:16:57;3.75;;;2.13;;
11034;SDS011;5571;48.110;-1.706;2023-08-06T10:19:23;7.90;;;2.10;;
11034;SDS011;5571;48.110;-1.706;2023-08-06T10:32:46;6.60;;;2.17;;
11034;SDS011;5571;48.110;-1.706;2023-08-06T10:35:35;4.75;;;1.38;;
11034;SDS011;5571;48.110;-1.706;2023-08-06T10:38:05;4.82;;;1.40;;
11034;SDS011;5571;48.110;-1.706;2023-08-06T10:40:35;7.10;;;1.58;;
11034;SDS011;5571;48.110;-1.706;2023-08-06T10:43:05;5.22;;;1.48;;
11034;SDS011;5571;48.110;-1.706;2023-08-06T10:45:36;6.03;;;1.48;;
11034;SDS011;5571;48.110;-1.706;2023-08-06T10:48:03;4.07;;;1.65;;
11034;SDS011;5571;48.110;-1.706;2023-08-06T10:50:29;3.60;;;1.33;;
11034;SDS011;5571;48.110;-1.706;2023-08-06T10:52:56;3.88;;;1.33;;
11034;SDS011;5571;48.110;-1.706;2023-08-06T10:55:26;3.33;;;1.45;;
11034;SDS011;5571;48.110;-1.706;2023-08-06T10:57:54;2.88;;;1.40;;
11034;SDS011;5571;48.110;-1.706;2023-08-06T11:00:21;3.03;;;1.48;;
11034;SDS011;5571;48.110;-1.706;2023-08-06T11:02:51;3.92;;;1.20;;
11034;SDS011;5571;48.110;-1.706;2023-08-06T11:05:18;5.07;;;1.52;;
11034;SDS011;5571;48.110;-1.706;2023-08-06T11:07:43;3.80;;;1.30;;
11034;SDS011;5571;48.110;-1.706;2023-08-06T11:10:10;2.38;;;1.25;;
11034;SDS011;5571;48.110;-1.706;2023-08-06T11:12:37;5.15;;;1.40;;
11034;SDS011;5571;48.110;-1.706;2023-08-06T11:15:04;9.50;;;1.70;;
11034;SDS011;5571;48.110;-1.706;2023-08-06T11:17:31;3.80;;;1.52;;
11034;SDS011;5571;48.110;-1.706;2023-08-06T11:20:01;6.45;;;1.60;;
11034;SDS011;5571;48.110;-1.706;2023-08-06T11:22:29;4.07;;;1.42;;
11034;SDS011;5571;48.110;-1.706;2023-08-06T11:24:54;4.68;;;1.63;;
11034;SDS011;5571;48.110;-1.706;2023-08-06T11:27:20;4.75;;;1.52;;
11034;SDS011;5571;48.110;-1.706;2023-08-06T11:29:45;2.83;;;1.25;;
11034;SDS011;5571;48.110;-1.706;2023-08-06T11:32:11;6.60;;;1.60;;
11034;SDS011;5571;48.110;-1.706;2023-08-06T11:34:37;3.72;;;1.60;;
11034;SDS011;5571;48.110;-1.706;2023-08-06T11:37:04;1.60;;;1.30;;
11034;SDS011;5571;48.110;-1.706;2023-08-06T11:39:37;4.50;;;1.63;;
11034;SDS011;5571;48.110;-1.706;2023-08-06T11:42:03;5.30;;;1.50;;
11034;SDS011;5571;48.110;-1.706;2023-08-06T11:44:36;5.20;;;1.52;;
11034;SDS011;5571;48.110;-1.706;2023-08-06T11:47:03;4.03;;;1.52;;
11034;SDS011;5571;48.110;-1.706;2023-08-06T11:49:49;4.72;;;1.55;;
11034;SDS011;5571;48.110;-1.706;2023-08-06T11:52:15;5.13;;;1.50;;
11034;SDS011;5571;48.110;-1.706;2023-08-06T11:54:44;4.80;;;1.48;;
11034;SDS011;5571;48.110;-1.706;2023-08-06T11:57:31;2.75;;;1.30;;
11034;SDS011;5571;48.110;-1.706;2023-08-06T12:00:07;2.88;;;1.02;;
11034;SDS011;5571;48.110;-1.706;2023-08-06T12:02:34;3.75;;;1.48;;
11034;SDS011;5571;48.110;-1.706;2023-08-06T12:05:02;3.58;;;1.38;;
11034;SDS011;5571;48.110;-1.706;2023-08-06T12:07:40;2.85;;;1.38;;
11034;SDS011;5571;48.110;-1.706;2023-08-06T12:10:10;4.00;;;1.20;;
11034;SDS011;5571;48.110;-1.706;2023-08-06T12:12:36;1.73;;;0.80;;
11034;SDS011;5571;48.110;-1.706;2023-08-06T12:15:03;3.90;;;1.27;;
11034;SDS011;5571;48.110;-1.706;2023-08-06T12:17:31;4.22;;;1.33;;
11034;SDS011;5571;48.110;-1.706;2023-08-06T12:19:56;2.78;;;1.20;;
11034;SDS011;5571;48.110;-1.706;2023-08-06T12:22:22;3.22;;;0.88;;
11034;SDS011;5571;48.110;-1.706;2023-08-06T12:24:48;6.75;;;1.40;;
11034;SDS011;5571;48.110;-1.706;2023-08-06T12:27:14;4.32;;;1.50;;
11034;SDS011;5571;48.110;-1.706;2023-08-06T12:29:43;3.85;;;1.45;;
11034;SDS011;5571;48.110;-1.706;2023-08-06T12:32:12;2.90;;;1.10;;
11034;SDS011;5571;48.110;-1.706;2023-08-06T12:34:39;3.08;;;1.20;;
11034;SDS011;5571;48.110;-1.706;2023-08-06T12:37:07;1.40;;;0.90;;
11034;SDS011;5571;48.110;-1.706;2023-08-06T12:39:34;1.80;;;1.17;;
11034;SDS011;5571;48.110;-1.706;2023-08-06T12:42:04;3.83;;;1.15;;
11034;SDS011;5571;48.110;-1.706;2023-08-06T12:44:31;2.50;;;1.50;;
11034;SDS011;5571;48.110;-1.706;2023-08-06T12:46:57;5.32;;;1.15;;
11034;SDS011;5571;48.110;-1.706;2023-08-06T12:49:23;4.38;;;1.67;;
11034;SDS011;5571;48.110;-1.706;2023-08-06T12:51:50;3.75;;;1.30;;
11034;SDS011;5571;48.110;-1.706;2023-08-06T12:54:25;2.42;;;1.52;;
11034;SDS011;5571;48.110;-1.706;2023-08-06T12:56:52;2.30;;;1.33;;
11034;SDS011;5571;48.110;-1.706;2023-08-06T12:59:18;3.53;;;1.20;;
11034;SDS011;5571;48.110;-1.706;2023-08-06T13:01:44;4.18;;;1.58;;
11034;SDS011;5571;48.110;-1.706;2023-08-06T13:04:10;5.20;;;1.30;;
11034;SDS011;5571;48.110;-1.706;2023-08-06T13:06:36;2.42;;;1.20;;
11034;SDS011;5571;48.110;-1.706;2023-08-06T13:09:04;2.25;;;1.30;;
11034;SDS011;5571;48.110;-1.706;2023-08-06T13:11:30;4.55;;;1.50;;
11034;SDS011;5571;48.110;-1.706;2023-08-06T13:13:59;4.90;;;1.17;;
11034;SDS011;5571;48.110;-1.706;2023-08-06T13:16:35;5.53;;;1.48;;
11034;SDS011;5571;48.110;-1.706;2023-08-06T13:19:02;7.45;;;1.30;;
11034;SDS011;5571;48.110;-1.706;2023-08-06T13:24:06;4.65;;;1.27;;
11034;SDS011;5571;48.110;-1.706;2023-08-06T13:26:33;3.72;;;1.45;;
11034;SDS011;5571;48.110;-1.706;2023-08-06T13:28:59;3.42;;;1.20;;
11034;SDS011;5571;48.110;-1.706;2023-08-06T13:31:25;4.15;;;1.52;;
11034;SDS011;5571;48.110;-1.706;2023-08-06T13:33:52;8.23;;;1.60;;
11034;SDS011;5571;48.110;-1.706;2023-08-06T13:36:20;4.90;;;1.55;;
11034;SDS011;5571;48.110;-1.706;2023-08-06T13:38:46;6.40;;;1.63;;
11034;SDS011;5571;48.110;-1.706;2023-08-06T13:41:12;1.92;;;1.30;;
11034;SDS011;5571;48.110;-1.706;2023-08-06T13:43:38;5.60;;;1.65;;
11034;SDS011;5571;48.110;-1.706;2023-08-06T13:46:04;3.13;;;1.60;;
11034;SDS011;5571;48.110;-1.706;2023-08-06T13:48:29;4.55;;;2.00;;
11034;SDS011;5571;48.110;-1.706;2023-08-06T13:50:55;13.35;;;5.15;;
11034;SDS011;5571;48.110;-1.706;2023-08-06T13:53:21;6.50;;;4.28;;
11034;SDS011;5571;48.110;-1.706;2023-08-06T13:55:46;13.82;;;8.35;;
11034;SDS011;5571;48.110;-1.706;2023-08-06T13:58:12;23.15;;;18.15;;
11034;SDS011;5571;48.110;-1.706;2023-08-06T14:00:38;20.90;;;18.60;;
11034;SDS011;5571;48.110;-1.706;2023-08-06T14:03:03;47.13;;;42.28;;
11034;SDS011;5571;48.110;-1.706;2023-08-06T14:05:29;63.17;;;55.00;;
11034;SDS011;5571;48.110;-1.706;2023-08-06T14:07:54;25.65;;;18.85;;
11034;SDS011;5571;48.110;-1.706;2023-08-06T14:10:20;38.25;;;33.13;;
11034;SDS011;5571;48.110;-1.706;2023-08-06T14:12:46;43.50;;;37.55;;
11034;SDS011;5571;48.110;-1.706;2023-08-06T14:15:11;51.60;;;39.00;;
11034;SDS011;5571;48.110;-1.706;2023-08-06T14:17:37;21.15;;;17.20;;
11034;SDS011;5571;48.110;-1.706;2023-08-06T14:20:03;30.52;;;23.50;;
11034;SDS011;5571;48.110;-1.706;2023-08-06T14:22:30;64.55;;;47.45;;
11034;SDS011;5571;48.110;-1.706;2023-08-06T14:24:58;34.40;;;24.30;;
11034;SDS011;5571;48.110;-1.706;2023-08-06T14:27:24;18.88;;;14.48;;
11034;SDS011;5571;48.110;-1.706;2023-08-06T14:29:50;22.58;;;18.02;;
11034;SDS011;5571;48.110;-1.706;2023-08-06T14:32:15;42.58;;;31.60;;
11034;SDS011;5571;48.110;-1.706;2023-08-06T14:34:43;23.08;;;17.23;;
11034;SDS011;5571;48.110;-1.706;2023-08-06T14:37:09;32.20;;;28.58;;
11034;SDS011;5571;48.110;-1.706;2023-08-06T14:39:35;22.60;;;17.88;;
11034;SDS011;5571;48.110;-1.706;2023-08-06T14:42:00;24.17;;;21.20;;
11034;SDS011;5571;48.110;-1.706;2023-08-06T14:44:27;21.33;;;16.58;;
11034;SDS011;5571;48.110;-1.706;2023-08-06T14:46:52;7.63;;;6.90;;
11034;SDS011;5571;48.110;-1.706;2023-08-06T14:49:18;8.75;;;7.15;;
11034;SDS011;5571;48.110;-1.706;2023-08-06T14:51:44;6.90;;;6.20;;
11034;SDS011;5571;48.110;-1.706;2023-08-06T14:54:09;7.82;;;5.65;;